Time;durP1;ratioP1;P1;durP2;ratioP2;P2;SDS_P1;SDS_P2;PMS_P1;PMS_P2;Temp;Humidity;BMP_temperature;BMP_pressure;BME280_temperature;BME280_humidity;BME280_pressure;Samples;Min_cycle;Max_cycle;Signal;HPM_P1;HPM_P2
2022/11/10 06:15:23;;;;;;;;;13.50;11.25;;;;;9.20;94.93;102214.88;6224490;22;49720;-75
2022/11/10 06:17:49;;;;;;;;;22.50;19.00;;;;;8.97;93.88;102175.34;6235479;22;49850;-74
2022/11/10 06:20:16;;;;;;;;;25.75;25.25;;;;;9.17;94.06;102211.31;6234500;22;50267;-74
2022/11/10 06:22:42;;;;;;;;;24.75;19.75;;;;;9.17;94.66;102216.53;6235607;22;49646;-74
2022/11/10 06:25:09;;;;;;;;;19.00;19.00;;;;;8.87;94.41;102157.38;6236067;22;49710;-75
2022/11/10 06:27:34;;;;;;;;;11.00;9.25;;;;;9.11;95.20;102221.47;6236556;22;49976;-74
2022/11/10 06:30:00;;;;;;;;;25.25;22.25;;;;;8.75;94.72;102149.81;6235111;22;49932;-75
2022/11/10 06:32:25;;;;;;;;;22.50;19.25;;;;;9.08;94.43;102204.72;6235753;22;49817;-74
2022/11/10 06:34:50;;;;;;;;;19.75;19.00;;;;;9.00;94.95;102200.81;6235954;22;49740;-74
2022/11/10 06:37:16;;;;;;;;;15.25;15.25;;;;;9.08;94.57;102216.09;6235542;22;49955;-74
2022/11/10 06:39:41;;;;;;;;;26.25;19.75;;;;;9.14;95.05;102232.09;6235911;22;49778;-74
2022/11/10 06:42:06;;;;;;;;;22.25;19.25;;;;;8.92;94.27;102200.41;6236175;22;49654;-74
2022/11/10 06:44:32;;;;;;;;;22.50;20.75;;;;;9.13;94.85;102237.25;6235617;22;49726;-75
2022/11/10 06:46:57;;;;;;;;;20.25;19.50;;;;;8.74;94.40;102183.78;6207733;22;49734;-75
2022/11/10 06:49:22;;;;;;;;;23.75;20.50;;;;;7.79;94.42;102016.66;6235043;22;54595;-74
2022/11/10 06:51:48;;;;;;;;;19.50;19.00;;;;;9.14;95.44;102254.78;6207576;22;53592;-74
2022/11/10 06:54:13;;;;;;;;;20.75;18.00;;;;;9.14;95.30;102276.63;6235949;22;50185;-73
2022/11/10 06:56:38;;;;;;;;;18.50;15.75;;;;;9.15;95.92;102269.66;6240829;22;49928;-74
2022/11/10 06:59:04;;;;;;;;;15.75;14.50;;;;;9.16;95.88;102271.47;6236391;22;49950;-72
2022/11/10 07:01:29;;;;;;;;;25.25;19.00;;;;;8.64;96.89;102182.41;6228893;22;50128;-73
2022/11/10 07:03:55;;;;;;;;;19.50;19.50;;;;;8.69;95.84;102224.53;6234221;22;49881;-73
2022/11/10 07:06:20;;;;;;;;;19.75;17.00;;;;;8.42;95.85;102175.16;6235105;22;49615;-74
2022/11/10 07:08:47;;;;;;;;;17.50;15.75;;;;;8.17;95.58;102135.41;6234667;22;50037;-74
2022/11/10 07:11:12;;;;;;;;;18.00;18.00;;;;;7.51;95.87;101996.00;6235123;22;49650;-73
2022/11/10 07:13:37;;;;;;;;;16.00;16.00;;;;;8.58;95.40;102189.94;6235389;22;49713;-76
2022/11/10 07:16:07;;;;;;;;;13.00;12.50;;;;;9.14;95.87;102289.72;6234661;22;49871;-74
2022/11/10 07:18:36;;;;;;;;;15.50;14.00;;;;;9.06;95.90;102267.47;6234033;22;49743;-77
2022/11/10 07:21:05;;;;;;;;;17.75;14.00;;;;;9.25;97.16;102306.00;6236084;22;49619;-79
2022/11/10 07:23:32;;;;;;;;;20.25;18.00;;;;;9.12;97.18;102280.00;6234890;22;49571;-77
2022/11/10 07:25:58;;;;;;;;;13.25;12.00;;;;;9.21;97.17;102296.19;6235833;22;49589;-76
2022/11/10 07:28:23;;;;;;;;;16.50;15.75;;;;;9.31;97.97;102313.28;6234755;22;50283;-77
2022/11/10 07:30:49;;;;;;;;;15.25;13.25;;;;;9.33;97.28;102315.16;6235300;22;49820;-74
2022/11/10 07:33:14;;;;;;;;;17.50;16.00;;;;;9.06;98.14;102269.19;6236118;22;61352;-74
2022/11/10 07:35:40;;;;;;;;;18.25;17.50;;;;;9.39;97.81;102333.81;6214354;22;49809;-81
2022/11/10 07:38:11;;;;;;;;;15.75;13.75;;;;;7.98;97.55;102100.44;6241560;22;49651;-81
2022/11/10 07:40:37;;;;;;;;;16.00;13.50;;;;;8.64;98.27;102194.59;6247740;22;49959;-81
2022/11/10 07:43:02;;;;;;;;;14.25;12.75;;;;;8.04;98.98;102092.03;6248420;22;49851;-81
2022/11/10 07:45:28;;;;;;;;;13.50;12.75;;;;;8.35;99.50;102180.91;6248935;22;49690;-81
2022/11/10 07:48:06;;;;;;;;;15.25;15.25;;;;;9.52;98.91;102350.16;6249237;22;49808;-83
2022/11/10 07:50:32;;;;;;;;;12.50;12.50;;;;;9.55;98.88;102363.41;6247462;22;49376;-76
2022/11/10 07:53:06;;;;;;;;;17.50;17.50;;;;;7.82;98.08;102066.50;6245008;22;49708;-79
2022/11/10 07:55:32;;;;;;;;;19.75;14.25;;;;;9.44;98.90;102342.78;6246776;22;49477;-78
2022/11/10 07:57:59;;;;;;;;;21.00;16.25;;;;;9.07;98.47;102284.09;6244206;22;50033;-83
2022/11/10 08:00:25;;;;;;;;;19.00;17.50;;;;;8.77;97.64;102229.31;6212251;22;49594;-80
2022/11/10 08:02:51;;;;;;;;;20.00;14.00;;;;;9.48;98.13;102354.34;6233670;22;50721;-81
2022/11/10 08:05:16;;;;;;;;;15.50;14.50;;;;;8.84;97.93;102259.34;6232967;22;49593;-79
2022/11/10 08:07:42;;;;;;;;;18.50;16.50;;;;;7.94;97.25;102079.31;6204842;22;50482;-78
2022/11/10 08:10:08;;;;;;;;;18.00;15.00;;;;;9.81;98.89;102406.69;6235578;22;49664;-80
2022/11/10 08:12:34;;;;;;;;;24.25;20.25;;;;;9.80;98.30;102392.66;6241366;22;49993;-79
2022/11/10 08:14:59;;;;;;;;;20.00;17.00;;;;;8.32;98.25;102170.25;6233900;22;49712;-80
2022/11/10 08:17:24;;;;;;;;;18.25;15.25;;;;;9.90;98.47;102428.13;6235013;22;49958;-83
2022/11/10 08:19:50;;;;;;;;;15.25;14.00;;;;;9.10;98.95;102266.84;6207793;22;49606;-82
2022/11/10 08:22:15;;;;;;;;;18.00;18.00;;;;;8.47;99.26;102163.22;6235383;22;49992;-83
2022/11/10 08:24:41;;;;;;;;;13.75;13.25;;;;;9.99;100.00;102426.84;6234860;22;50017;-83
2022/11/10 08:27:06;;;;;;;;;17.50;14.75;;;;;8.73;100.00;102188.09;6233566;22;49933;-80
2022/11/10 08:29:31;;;;;;;;;15.50;14.50;;;;;9.37;100.00;102324.09;6207166;22;49765;-81
2022/11/10 08:31:57;;;;;;;;;15.00;13.00;;;;;10.20;100.00;102426.09;6234032;22;50100;-82
2022/11/10 08:34:22;;;;;;;;;11.00;11.00;;;;;10.00;99.68;102385.78;6207857;22;50294;-80
2022/11/10 08:36:51;;;;;;;;;9.25;9.25;;;;;8.71;100.00;102168.81;6235349;22;50445;-82
2022/11/10 08:39:17;;;;;;;;;15.00;11.75;;;;;9.47;100.00;102273.91;6235635;22;49655;-80
2022/11/10 08:41:42;;;;;;;;;11.00;9.00;;;;;8.88;100.00;102167.06;6209661;22;50119;-82
2022/11/10 08:44:07;;;;;;;;;10.00;8.00;;;;;9.01;100.00;102158.97;6236917;22;50014;-81
2022/11/10 08:46:33;;;;;;;;;12.50;10.75;;;;;9.54;100.00;102272.47;6209229;22;52364;-81
2022/11/10 08:48:58;;;;;;;;;13.50;12.00;;;;;9.42;100.00;102242.22;6236608;22;49516;-82
2022/11/10 08:51:23;;;;;;;;;10.50;10.50;;;;;10.72;100.00;102460.16;6236566;22;49741;-80
2022/11/10 08:53:49;;;;;;;;;13.25;11.00;;;;;9.57;100.00;102228.06;6236941;22;49738;-82
2022/11/10 08:56:14;;;;;;;;;13.25;11.75;;;;;9.63;100.00;102231.88;6209503;22;52459;-82
2022/11/10 08:58:39;;;;;;;;;13.00;9.25;;;;;10.28;100.00;102343.44;6236220;22;49816;-81
2022/11/10 09:01:11;;;;;;;;;9.50;9.50;;;;;10.95;100.00;102438.47;6208062;22;58722;-81
2022/11/10 09:03:37;;;;;;;;;13.25;11.75;;;;;11.02;100.00;102463.31;6237055;22;49531;-82
2022/11/10 09:06:02;;;;;;;;;8.00;8.00;;;;;11.09;100.00;102483.78;6209073;22;51807;-82
2022/11/10 09:08:29;;;;;;;;;14.75;12.00;;;;;10.62;100.00;102397.53;6236726;22;49543;-82
2022/11/10 09:10:54;;;;;;;;;9.75;7.50;;;;;10.68;100.00;102405.66;6236325;22;49792;-81
2022/11/10 09:13:20;;;;;;;;;12.00;9.25;;;;;10.54;100.00;102329.78;6208474;22;49911;-82
2022/11/10 09:15:46;;;;;;;;;8.75;8.75;;;;;10.73;100.00;102360.41;6235734;22;50785;-81
2022/11/10 09:18:14;;;;;;;;;9.25;9.25;;;;;11.45;100.00;102495.97;6235991;22;49706;-82
2022/11/10 09:20:40;;;;;;;;;12.00;10.00;;;;;11.03;100.00;102388.91;6208768;22;49963;-83
2022/11/10 09:23:16;;;;;;;;;7.50;6.25;;;;;11.49;100.00;102452.31;6237066;22;49662;-83
2022/11/10 09:25:47;;;;;;;;;12.00;11.25;;;;;11.14;100.00;102379.75;6209290;22;52473;-83
2022/11/10 09:28:13;;;;;;;;;10.75;10.50;;;;;11.05;100.00;102353.06;6237307;22;49722;-84
2022/11/10 09:30:40;;;;;;;;;10.75;10.75;;;;;10.63;100.00;102292.53;6236760;22;49582;-79
2022/11/10 09:33:05;;;;;;;;;9.50;7.00;;;;;11.25;100.00;102367.09;6209970;22;49831;-75
2022/11/10 09:35:31;;;;;;;;;8.25;8.25;;;;;11.89;100.00;102460.22;6236148;22;50070;-77
2022/11/10 09:37:56;;;;;;;;;9.75;8.50;;;;;11.83;100.00;102441.53;6236381;22;49648;-84
2022/11/10 09:40:28;;;;;;;;;11.25;10.00;;;;;11.88;100.00;102437.38;6236622;22;49756;-74
2022/11/10 09:42:56;;;;;;;;;9.75;9.75;;;;;12.03;100.00;102451.16;6236316;22;49592;-74
2022/11/10 09:45:37;;;;;;;;;8.50;6.00;;;;;11.86;100.00;102409.16;6235892;22;49823;-75
2022/11/10 09:48:11;;;;;;;;;6.00;5.25;;;;;12.23;100.00;102464.25;6235604;22;49746;-74
2022/11/10 09:50:47;;;;;;;;;9.00;7.25;;;;;11.37;100.00;102299.25;6235996;22;49819;-74
2022/11/10 09:53:23;;;;;;;;;4.00;2.75;;;;;12.37;100.00;102464.81;6237843;22;49662;-74
2022/11/10 09:55:54;;;;;;;;;6.00;5.25;;;;;10.59;99.99;102154.03;6236090;22;50212;-74
2022/11/10 09:58:25;;;;;;;;;12.00;10.50;;;;;12.45;99.97;102466.94;6235541;22;49706;-74
2022/11/10 10:01:32;;;;;;;;;9.50;8.50;;;;;12.36;100.00;102444.59;6236177;22;49696;-74
2022/11/10 10:04:19;;;;;;;;;5.50;5.50;;;;;12.44;100.00;102451.94;6214840;22;49822;-74
2022/11/10 10:07:00;;;;;;;;;8.00;6.00;;;;;12.49;99.47;102454.78;6235084;22;52376;-72
2022/11/10 10:09:37;;;;;;;;;5.00;4.00;;;;;12.72;99.06;102487.28;6240690;22;49487;-74
2022/11/10 10:12:32;;;;;;;;;8.75;6.75;;;;;12.59;98.92;102465.72;6236039;22;49699;-75
2022/11/10 10:15:20;;;;;;;;;8.50;6.50;;;;;12.84;98.85;102501.88;6232868;22;50100;-77
2022/11/10 10:18:20;;;;;;;;;4.50;3.25;;;;;12.89;98.43;102504.66;6233627;22;49737;-75
2022/11/10 10:21:03;;;;;;;;;7.00;6.00;;;;;12.95;98.96;102507.56;6237873;22;49793;-75
2022/11/10 10:23:47;;;;;;;;;4.00;3.00;;;;;11.87;97.23;102335.59;6238711;22;49623;-80
2022/11/10 10:26:17;;;;;;;;;3.25;3.25;;;;;13.03;97.35;102510.50;6235786;22;49730;-81
2022/11/10 10:28:48;;;;;;;;;9.00;5.25;;;;;13.06;96.94;102519.41;6235831;22;49900;-76
2022/11/10 10:31:37;;;;;;;;;4.25;3.25;;;;;12.87;96.59;102482.63;6236226;22;49796;-78
2022/11/10 10:34:03;;;;;;;;;6.00;5.00;;;;;12.50;95.54;102451.28;6234826;22;49892;-76
2022/11/10 10:36:30;;;;;;;;;6.75;5.00;;;;;12.63;96.34;102445.66;6235892;22;49669;-76
2022/11/10 10:39:01;;;;;;;;;5.25;4.00;;;;;12.47;95.12;102409.03;6236010;22;50029;-77
2022/11/10 10:41:29;;;;;;;;;3.75;3.75;;;;;13.33;95.29;102545.06;6239198;22;49943;-79
2022/11/10 10:43:57;;;;;;;;;6.25;4.25;;;;;13.01;94.35;102483.16;6208219;22;49920;-72
2022/11/10 10:46:27;;;;;;;;;4.00;4.00;;;;;13.00;94.38;102473.44;6237018;22;49923;-77
2022/11/10 10:49:27;;;;;;;;;3.50;3.00;;;;;13.41;93.77;102533.97;6235458;22;50635;-79
2022/11/10 10:52:10;;;;;;;;;2.00;2.00;;;;;13.49;94.39;102535.97;6235288;22;49734;-78
2022/11/10 10:54:37;;;;;;;;;4.00;4.00;;;;;13.55;92.32;102531.84;6235530;22;49730;-75
2022/11/10 10:57:21;;;;;;;;;3.75;3.75;;;;;13.18;91.92;102463.59;6236416;22;49742;-77
2022/11/10 10:59:47;;;;;;;;;6.50;3.00;;;;;12.74;92.40;102378.50;6235761;22;49927;-77
2022/11/10 11:02:26;;;;;;;;;4.25;4.00;;;;;13.68;92.82;102525.25;6235233;22;49657;-78
2022/11/10 11:05:15;;;;;;;;;4.25;4.00;;;;;13.10;92.62;102447.47;6236048;22;49654;-77
2022/11/10 11:07:52;;;;;;;;;2.75;2.75;;;;;12.47;91.73;102312.47;6235834;22;49909;-75
2022/11/10 11:10:27;;;;;;;;;3.50;2.50;;;;;12.99;91.65;102369.72;6234077;22;49745;-80
2022/11/10 11:12:53;;;;;;;;;1.75;1.75;;;;;13.83;91.38;102509.97;6235393;22;49831;-76
2022/11/10 11:15:25;;;;;;;;;3.00;3.00;;;;;13.88;91.31;102507.47;6235191;22;50199;-76
2022/11/10 11:18:01;;;;;;;;;3.50;3.00;;;;;13.31;90.41;102396.38;6235547;22;49958;-75
2022/11/10 11:20:45;;;;;;;;;4.25;3.00;;;;;13.76;90.20;102465.72;6234959;22;50787;-78
2022/11/10 11:23:20;;;;;;;;;1.25;1.25;;;;;12.79;89.29;102331.22;6236607;22;49826;-77
2022/11/10 11:25:48;;;;;;;;;3.50;2.00;;;;;13.73;89.22;102448.03;6236048;22;49690;-78
2022/11/10 11:28:38;;;;;;;;;2.50;2.50;;;;;14.06;90.30;102499.31;6236105;22;49619;-76
2022/11/10 11:31:39;;;;;;;;;3.50;3.00;;;;;13.38;89.35;102374.66;6239936;22;49957;-77
2022/11/10 11:34:36;;;;;;;;;2.50;1.00;;;;;14.16;89.08;102527.81;6238802;22;49765;-77
2022/11/10 11:37:17;;;;;;;;;4.00;4.00;;;;;14.15;88.11;102503.16;6238208;22;49630;-76
2022/11/10 11:39:52;;;;;;;;;6.00;5.00;;;;;13.93;88.79;102467.22;6236526;22;49828;-79
2022/11/10 11:42:44;;;;;;;;;6.25;3.00;;;;;13.93;89.62;102456.66;6235268;22;50775;-76
2022/11/10 11:45:43;;;;;;;;;3.50;3.50;;;;;12.99;89.32;102295.91;6235345;22;49656;-77
2022/11/10 11:48:32;;;;;;;;;4.25;4.25;;;;;13.26;88.92;102332.06;6235603;22;49773;-77
2022/11/10 11:51:04;;;;;;;;;3.50;2.50;;;;;14.38;89.83;102513.56;6235744;22;49953;-74
2022/11/10 11:53:35;;;;;;;;;3.75;2.25;;;;;14.40;88.98;102510.16;6234538;22;49779;-79
2022/11/10 11:56:19;;;;;;;;;4.00;4.00;;;;;14.44;89.46;102519.97;6235691;22;49558;-80
2022/11/10 11:59:01;;;;;;;;;5.00;5.00;;;;;13.24;89.27;102300.34;6235524;22;50016;-79
2022/11/10 12:02:04;;;;;;;;;3.25;3.00;;;;;14.60;89.41;102513.50;6236036;22;49772;-75
2022/11/10 12:05:19;;;;;;;;;3.00;3.00;;;;;14.50;89.52;102477.03;6235205;22;49692;-83
2022/11/10 12:08:04;;;;;;;;;4.50;4.25;;;;;14.77;88.95;102520.22;6057426;23;49757;-78
2022/11/10 12:10:42;;;;;;;;;12.50;7.00;;;;;14.87;88.80;102526.69;6081916;23;49776;-80
2022/11/10 12:13:22;;;;;;;;;4.75;3.50;;;;;14.98;88.94;102525.25;6197320;22;49908;-78
2022/11/10 12:16:05;;;;;;;;;1.25;1.00;;;;;14.03;88.72;102342.56;6235851;22;49847;-78
2022/11/10 12:18:35;;;;;;;;;2.25;2.25;;;;;15.12;87.55;102533.59;6208818;22;49972;-78
2022/11/10 12:21:18;;;;;;;;;3.25;2.50;;;;;15.08;87.74;102515.88;6208802;22;49741;-80
2022/11/10 12:24:17;;;;;;;;;4.75;3.00;;;;;15.13;86.51;102522.19;6236765;22;50259;-79
2022/11/10 12:27:15;;;;;;;;;8.50;3.50;;;;;14.80;86.14;102467.41;6238578;22;50933;-86
2022/11/10 12:29:52;;;;;;;;;2.25;1.25;;;;;15.06;86.54;102512.28;6224305;22;49923;-79
2022/11/10 12:32:27;;;;;;;;;2.00;2.00;;;;;14.43;86.83;102433.63;6218926;22;49535;-76
2022/11/10 12:34:58;;;;;;;;;3.50;1.00;;;;;14.81;87.12;102468.31;6237254;22;50159;-73
2022/11/10 12:37:38;;;;;;;;;1.50;1.50;;;;;14.44;86.81;102408.09;6236250;22;49868;-77
2022/11/10 12:40:15;;;;;;;;;1.75;0.00;;;;;15.08;86.36;102539.66;6236531;22;49440;-75
2022/11/10 12:42:45;;;;;;;;;2.00;2.00;;;;;15.09;86.71;102517.66;6208874;22;49595;-78
2022/11/10 12:45:31;;;;;;;;;3.00;2.00;;;;;15.12;87.03;102538.91;6238044;22;49639;-76
2022/11/10 12:47:58;;;;;;;;;3.00;3.00;;;;;14.87;87.16;102461.47;6235836;22;49870;-73
2022/11/10 12:50:42;;;;;;;;;4.00;3.00;;;;;15.15;86.54;102509.88;6235459;22;49841;-72
2022/11/10 12:53:14;;;;;;;;;2.00;2.00;;;;;15.17;86.91;102517.03;6237144;22;49671;-72
2022/11/10 12:55:51;;;;;;;;;3.25;2.50;;;;;14.67;85.73;102429.97;6235443;22;49902;-73
2022/11/10 12:58:18;;;;;;;;;4.00;4.00;;;;;14.74;86.02;102450.47;6235654;22;51100;-73
2022/11/10 13:01:10;;;;;;;;;3.00;2.25;;;;;15.05;84.62;102508.72;6240962;22;49529;-77
2022/11/10 13:03:38;;;;;;;;;3.50;2.25;;;;;15.20;85.07;102520.63;6247506;22;49376;-81
2022/11/10 13:06:06;;;;;;;;;3.00;3.00;;;;;15.09;85.80;102491.19;6239860;22;49705;-79
2022/11/10 13:08:40;;;;;;;;;3.00;3.00;;;;;15.25;84.69;102526.94;6243327;22;50830;-77
2022/11/10 13:11:14;;;;;;;;;4.50;4.25;;;;;15.28;84.82;102524.41;6239662;22;49676;-73
2022/11/10 13:13:45;;;;;;;;;4.50;3.00;;;;;14.20;84.75;102372.16;6246617;22;49505;-74
2022/11/10 13:16:40;;;;;;;;;2.50;2.00;;;;;15.26;83.35;102528.75;6239585;22;49745;-76
2022/11/10 13:19:28;;;;;;;;;5.25;4.50;;;;;15.28;84.11;102516.47;6237784;22;50598;-74
2022/11/10 13:21:59;;;;;;;;;4.00;4.00;;;;;15.29;83.52;102513.84;6235403;22;49648;-75
2022/11/10 13:24:27;;;;;;;;;5.00;2.25;;;;;15.33;84.23;102521.00;6235530;22;50042;-75
2022/11/10 13:26:54;;;;;;;;;4.75;3.50;;;;;15.37;84.25;102516.72;6237028;22;49457;-75
2022/11/10 13:29:41;;;;;;;;;5.00;5.00;;;;;15.40;83.92;102517.69;6238132;22;49861;-74
2022/11/10 13:32:06;;;;;;;;;5.50;5.50;;;;;15.41;83.61;102522.13;6233138;22;49692;-75
2022/11/10 13:34:45;;;;;;;;;8.00;8.00;;;;;14.71;84.23;102397.50;6210643;22;49623;-75
2022/11/10 13:37:28;;;;;;;;;7.00;7.00;;;;;15.45;83.01;102528.44;6234930;22;49700;-74
2022/11/10 13:40:15;;;;;;;;;6.75;5.25;;;;;15.45;83.33;102534.63;6233439;22;50758;-75
2022/11/10 13:42:41;;;;;;;;;4.00;4.00;;;;;13.93;82.55;102278.88;6233954;22;49859;-75
2022/11/10 13:45:38;;;;;;;;;5.75;5.75;;;;;15.44;82.25;102524.91;6234307;22;49920;-75
2022/11/10 13:48:10;;;;;;;;;4.25;4.00;;;;;15.57;82.97;102541.13;6235989;22;49710;-75
2022/11/10 13:51:03;;;;;;;;;6.00;5.25;;;;;15.60;82.72;102544.78;6235833;22;49833;-75
2022/11/10 13:53:42;;;;;;;;;9.50;7.50;;;;;15.60;82.51;102547.41;6236281;22;49778;-78
2022/11/10 13:56:41;;;;;;;;;7.00;7.00;;;;;15.54;82.75;102541.94;6236666;22;49753;-73
2022/11/10 13:59:29;;;;;;;;;13.50;11.00;;;;;15.45;82.30;102545.22;6236593;22;49757;-74
2022/11/10 14:02:32;;;;;;;;;9.00;8.00;;;;;15.37;82.73;102546.72;6238223;22;49547;-75
2022/11/10 14:04:58;;;;;;;;;10.00;8.25;;;;;15.17;83.26;102551.44;6247886;22;49667;-75
2022/11/10 14:07:28;;;;;;;;;7.25;6.75;;;;;15.02;83.31;102566.81;6248345;22;49441;-78
2022/11/10 14:09:55;;;;;;;;;10.50;9.25;;;;;15.05;84.11;102569.53;6248472;22;49527;-76
2022/11/10 14:12:34;;;;;;;;;7.50;7.00;;;;;14.87;84.62;102539.91;6248275;22;49463;-79
2022/11/10 14:15:14;;;;;;;;;8.50;8.25;;;;;14.65;84.45;102513.63;6248309;22;49478;-75
2022/11/10 14:17:45;;;;;;;;;12.00;9.75;;;;;14.53;84.14;102528.25;6247294;22;49738;-74
2022/11/10 14:20:42;;;;;;;;;9.00;7.25;;;;;15.06;84.15;102581.06;6247824;22;49389;-76
2022/11/10 14:23:25;;;;;;;;;10.25;9.25;;;;;14.37;84.50;102478.34;6247490;22;49759;-76
2022/11/10 14:26:05;;;;;;;;;11.00;9.00;;;;;14.87;84.43;102559.31;6248252;22;49363;-76
2022/11/10 14:28:36;;;;;;;;;6.75;6.00;;;;;15.00;84.34;102602.00;6247277;22;49513;-73
2022/11/10 14:31:02;;;;;;;;;10.00;10.00;;;;;14.11;84.10;102444.91;6244112;22;49424;-74
2022/11/10 14:33:28;;;;;;;;;8.75;7.75;;;;;14.95;84.56;102595.66;6245485;22;50432;-74
2022/11/10 14:36:04;;;;;;;;;6.00;6.00;;;;;14.65;84.56;102553.25;6246282;22;49180;-74
2022/11/10 14:38:32;;;;;;;;;8.00;8.00;;;;;14.91;84.58;102599.97;6245787;22;49250;-75
2022/11/10 14:41:01;;;;;;;;;11.75;9.50;;;;;14.82;84.20;102613.78;6246389;22;49443;-74
2022/11/10 14:43:37;;;;;;;;;9.00;8.00;;;;;14.91;84.54;102602.59;6246932;22;49669;-74
2022/11/10 14:46:05;;;;;;;;;6.25;6.00;;;;;14.83;84.32;102614.69;6246358;22;49609;-74
2022/11/10 14:48:34;;;;;;;;;11.00;8.00;;;;;14.12;83.44;102476.66;6246916;22;49557;-76
2022/11/10 14:51:07;;;;;;;;;10.25;8.25;;;;;13.50;83.08;102376.81;6247033;22;49544;-77
2022/11/10 14:53:34;;;;;;;;;7.25;6.00;;;;;14.82;83.33;102607.59;6246243;22;49994;-74
2022/11/10 14:56:02;;;;;;;;;5.25;4.00;;;;;14.62;83.06;102587.53;6246851;22;49614;-74
2022/11/10 14:58:35;;;;;;;;;8.00;8.00;;;;;14.31;82.81;102523.97;6246368;22;49540;-75
2022/11/10 15:01:03;;;;;;;;;7.00;7.00;;;;;14.61;83.51;102584.00;6246500;22;49353;-75
2022/11/10 15:03:38;;;;;;;;;7.00;7.00;;;;;13.99;83.97;102478.00;6246588;22;50332;-73
2022/11/10 15:06:08;;;;;;;;;9.25;9.25;;;;;14.69;83.48;102603.66;6246989;22;49556;-75
2022/11/10 15:08:34;;;;;;;;;12.50;10.25;;;;;13.14;83.52;102361.50;6219480;22;49815;-76
2022/11/10 15:11:00;;;;;;;;;9.25;6.75;;;;;14.46;83.87;102578.19;6246440;22;49377;-79
2022/11/10 15:13:25;;;;;;;;;8.75;7.25;;;;;14.56;84.64;102599.69;6246252;22;49920;-81
2022/11/10 15:15:52;;;;;;;;;9.25;8.25;;;;;14.46;84.88;102594.94;6246347;22;49541;-75
2022/11/10 15:18:28;;;;;;;;;9.00;8.00;;;;;14.41;84.89;102583.28;6246164;22;49144;-79
2022/11/10 15:21:02;;;;;;;;;7.75;7.25;;;;;14.14;84.79;102545.38;6246980;22;49497;-78
2022/11/10 15:23:39;;;;;;;;;6.75;6.00;;;;;13.65;84.43;102494.38;6246128;22;49646;-76
2022/11/10 15:26:21;;;;;;;;;8.25;7.00;;;;;13.51;85.04;102455.13;6246217;22;49681;-77
2022/11/10 15:28:47;;;;;;;;;9.25;7.75;;;;;13.03;84.62;102339.13;6246425;22;49425;-78
2022/11/10 15:31:29;;;;;;;;;4.50;4.50;;;;;14.55;84.74;102597.91;6247455;22;49572;-85
2022/11/10 15:33:57;;;;;;;;;5.00;5.00;;;;;13.93;84.56;102500.63;6219931;22;50782;-82
2022/11/10 15:36:22;;;;;;;;;7.50;7.00;;;;;14.56;84.36;102601.44;6246608;22;49407;-77
2022/11/10 15:39:05;;;;;;;;;10.75;7.00;;;;;13.63;85.03;102443.28;6219655;22;49562;-77
2022/11/10 15:41:35;;;;;;;;;5.50;5.50;;;;;14.35;84.18;102561.94;6245643;22;49742;-74
2022/11/10 15:44:13;;;;;;;;;9.50;7.25;;;;;14.47;84.02;102591.44;6245093;22;49799;-77
2022/11/10 15:46:38;;;;;;;;;7.50;7.50;;;;;14.26;83.85;102582.75;6242954;22;49828;-73
2022/11/10 15:49:29;;;;;;;;;8.75;8.75;;;;;14.40;84.40;102586.78;6237630;22;49599;-70
2022/11/10 15:52:17;;;;;;;;;9.25;9.25;;;;;14.36;84.03;102599.81;6213478;22;49853;-74
2022/11/10 15:54:44;;;;;;;;;4.25;3.50;;;;;12.83;83.79;102370.91;6220416;22;51263;-71
2022/11/10 15:57:14;;;;;;;;;5.00;4.75;;;;;13.91;84.48;102542.81;6248020;22;49397;-72
2022/11/10 15:59:40;;;;;;;;;6.75;6.75;;;;;13.80;84.83;102525.72;6242623;22;49673;-70
2022/11/10 16:02:20;;;;;;;;;18.00;15.50;;;;;14.20;84.91;102601.94;6248500;22;49500;-73
2022/11/10 16:04:46;;;;;;;;;13.75;12.75;;;;;13.63;85.12;102514.53;6246110;22;50159;-72
2022/11/10 16:07:11;;;;;;;;;18.75;16.00;;;;;13.53;85.60;102524.72;6247546;22;49866;-71
2022/11/10 16:09:37;;;;;;;;;9.25;9.25;;;;;13.38;85.93;102501.28;6247401;22;49172;-72
2022/11/10 16:12:02;;;;;;;;;5.75;5.75;;;;;13.98;86.03;102594.97;6246518;22;49496;-73
2022/11/10 16:14:28;;;;;;;;;7.00;6.00;;;;;14.00;86.95;102609.16;6247926;22;50562;-72
2022/11/10 16:16:53;;;;;;;;;9.25;7.75;;;;;14.02;86.82;102604.84;6248267;22;49196;-80
2022/11/10 16:19:19;;;;;;;;;9.50;8.25;;;;;12.51;86.61;102351.25;6247630;22;49370;-71
2022/11/10 16:21:44;;;;;;;;;8.50;8.25;;;;;13.94;86.97;102592.19;6248885;22;49131;-72
2022/11/10 16:24:10;;;;;;;;;9.25;9.25;;;;;13.57;87.41;102522.22;6236095;22;50929;-73
2022/11/10 16:26:35;;;;;;;;;16.50;14.00;;;;;13.15;87.78;102464.38;6208453;22;49739;-81
2022/11/10 16:29:01;;;;;;;;;17.00;14.25;;;;;13.64;88.35;102560.31;6236439;22;49714;-73
2022/11/10 16:31:26;;;;;;;;;12.50;12.50;;;;;13.49;88.47;102587.00;6236408;22;49685;-71
2022/11/10 16:33:52;;;;;;;;;15.50;13.25;;;;;13.45;89.24;102546.41;6235903;22;50673;-70
2022/11/10 16:36:26;;;;;;;;;22.50;19.50;;;;;13.81;90.13;102611.09;6246067;22;49337;-70
2022/11/10 16:38:53;;;;;;;;;16.50;15.25;;;;;12.70;90.02;102424.00;6248485;22;49400;-70
2022/11/10 16:41:18;;;;;;;;;14.75;14.75;;;;;12.89;90.32;102478.31;6248952;22;49342;-68
2022/11/10 16:43:44;;;;;;;;;15.50;15.50;;;;;13.25;90.79;102550.06;6239648;22;49744;-71
2022/11/10 16:46:18;;;;;;;;;16.75;16.75;;;;;13.46;90.99;102582.50;6235601;22;49846;-76
2022/11/10 16:48:45;;;;;;;;;18.25;15.75;;;;;13.62;91.55;102620.94;6208296;22;49960;-73
2022/11/10 16:51:13;;;;;;;;;17.50;14.25;;;;;13.36;92.02;102588.28;6236225;22;49883;-72
2022/11/10 16:53:40;;;;;;;;;19.25;14.00;;;;;13.60;91.92;102633.16;6234940;22;50534;-80
2022/11/10 16:56:11;;;;;;;;;14.50;12.50;;;;;12.47;91.98;102449.44;6236152;22;50116;-69
2022/11/10 16:58:36;;;;;;;;;14.50;13.25;;;;;13.59;92.07;102647.19;6236735;22;49810;-70
2022/11/10 17:01:02;;;;;;;;;16.25;14.00;;;;;13.39;91.89;102612.13;6235912;22;49999;-69
2022/11/10 17:03:44;;;;;;;;;14.50;14.50;;;;;13.62;92.33;102651.72;6235638;22;50239;-71
2022/11/10 17:06:12;;;;;;;;;19.25;18.25;;;;;13.13;91.88;102586.47;6234868;22;49726;-70
2022/11/10 17:08:38;;;;;;;;;17.50;16.75;;;;;13.62;92.05;102654.34;6235677;22;49883;-78
2022/11/10 17:11:03;;;;;;;;;18.50;14.50;;;;;12.04;91.82;102404.66;6238150;22;50052;-72
2022/11/10 17:13:28;;;;;;;;;19.00;13.00;;;;;13.50;91.44;102664.41;6234483;22;49782;-76
2022/11/10 17:16:17;;;;;;;;;10.75;10.25;;;;;13.34;91.37;102633.91;6236570;22;49857;-78
2022/11/10 17:18:43;;;;;;;;;12.75;12.50;;;;;12.95;91.65;102562.00;6221739;22;49778;-71
2022/11/10 17:21:11;;;;;;;;;24.25;22.25;;;;;13.61;92.02;102695.69;6245385;22;49575;-75
2022/11/10 17:23:37;;;;;;;;;19.50;17.75;;;;;12.89;91.34;102586.38;6242212;22;50553;-71
2022/11/10 17:26:03;;;;;;;;;23.00;18.00;;;;;13.48;91.17;102681.94;6239552;22;49782;-75
2022/11/10 17:28:29;;;;;;;;;15.50;11.50;;;;;13.61;91.53;102705.34;6238271;22;49571;-71
2022/11/10 17:30:55;;;;;;;;;15.00;13.00;;;;;13.42;91.20;102670.31;6209836;22;50087;-71
2022/11/10 17:33:20;;;;;;;;;15.25;14.75;;;;;12.03;91.16;102445.88;6236740;22;50447;-76
2022/11/10 17:35:48;;;;;;;;;16.75;16.75;;;;;13.43;92.12;102682.66;6240113;22;49459;-76
2022/11/10 17:38:23;;;;;;;;;11.00;11.00;;;;;13.60;91.64;102711.44;6236543;22;49755;-73
2022/11/10 17:40:49;;;;;;;;;17.00;15.00;;;;;12.69;90.99;102555.69;6238804;22;49925;-71
2022/11/10 17:43:14;;;;;;;;;16.00;13.25;;;;;12.86;90.82;102587.16;6236237;22;50369;-72
2022/11/10 17:45:40;;;;;;;;;14.50;14.50;;;;;12.13;90.68;102481.38;6240559;22;53148;-73
2022/11/10 17:48:06;;;;;;;;;14.00;14.00;;;;;13.57;90.60;102720.13;6235742;22;63147;-73
2022/11/10 17:50:32;;;;;;;;;13.50;13.50;;;;;12.99;90.66;102614.00;6243514;22;49532;-72
2022/11/10 17:53:03;;;;;;;;;14.00;12.75;;;;;13.40;90.54;102681.63;6239782;22;49826;-75
2022/11/10 17:55:28;;;;;;;;;16.00;13.00;;;;;13.42;90.73;102682.59;6242026;22;49440;-71
2022/11/10 17:57:56;;;;;;;;;14.75;13.50;;;;;13.45;90.52;102688.00;6239412;22;49238;-71